Time;durP1;ratioP1;P1;durP2;ratioP2;P2;SDS_P1;SDS_P2;PMS_P1;PMS_P2;Temp;Humidity;BMP_temperature;BMP_pressure;BME280_temperature;BME280_humidity;BME280_pressure;Samples;Min_cycle;Max_cycle;Signal;HPM_P1;HPM_P2
2022/04/13 00:02:23;;;;;;;15.07;13.43;;;;;;;15.04;73.14;100144.09;5066037;28;20139;-79
2022/04/13 00:04:50;;;;;;;19.88;11.43;;;;;;;15.06;73.22;100140.94;5071310;28;20553;-78
2022/04/13 00:07:17;;;;;;;16.00;11.05;;;;;;;14.98;73.45;100144.53;5070768;28;20598;-77
2022/04/13 00:09:44;;;;;;;13.90;12.05;;;;;;;15.08;73.52;100155.53;5050210;28;20127;-76
2022/04/13 00:12:10;;;;;;;14.45;10.93;;;;;;;15.09;73.53;100171.25;5071739;28;20091;-76
2022/04/13 00:14:37;;;;;;;18.95;11.65;;;;;;;15.06;73.67;100152.19;5080389;28;20470;-79
2022/04/13 00:17:04;;;;;;;16.60;11.95;;;;;;;15.04;73.71;100152.53;5067752;28;20135;-76
2022/04/13 00:19:31;;;;;;;17.48;11.52;;;;;;;15.04;73.58;100146.91;5071103;28;20158;-76
2022/04/13 00:21:58;;;;;;;14.80;12.05;;;;;;;15.04;73.94;100143.25;5067753;28;20135;-76
2022/04/13 00:24:25;;;;;;;19.08;12.48;;;;;;;15.25;74.10;100178.16;5071122;28;20072;-77
2022/04/13 00:26:52;;;;;;;18.85;11.35;;;;;;;15.17;73.68;100159.22;5071499;28;20076;-77
2022/04/13 00:29:19;;;;;;;15.68;10.95;;;;;;;15.27;73.76;100158.94;5064605;28;20135;-76
2022/04/13 00:31:46;;;;;;;13.68;12.25;;;;;;;15.32;73.93;100164.44;5070573;28;20166;-77
2022/04/13 00:34:13;;;;;;;21.85;12.65;;;;;;;15.31;73.96;100161.94;5067542;28;20412;-76
2022/04/13 00:36:40;;;;;;;18.42;13.02;;;;;;;15.45;74.17;100185.19;5068002;28;20472;-78
2022/04/13 00:39:06;;;;;;;14.90;12.82;;;;;;;15.34;74.04;100169.75;5071975;28;20131;-77
2022/04/13 00:41:33;;;;;;;14.82;13.00;;;;;;;15.46;74.21;100183.22;5072203;28;20462;-76
2022/04/13 00:44:10;;;;;;;12.75;11.18;;;;;;;15.49;74.15;100188.22;5070515;28;20136;-77
2022/04/13 00:46:37;;;;;;;18.63;12.20;;;;;;;15.53;74.16;100194.84;5062560;28;20135;-77
2022/04/13 00:49:07;;;;;;;18.77;11.82;;;;;;;15.41;74.53;100176.56;5067761;28;20051;-76
2022/04/13 00:51:34;;;;;;;14.88;12.77;;;;;;;15.10;74.66;100136.34;5074981;28;20079;-76
2022/04/13 00:54:04;;;;;;;23.27;12.88;;;;;;;15.31;74.69;100164.75;5073931;28;20056;-77
2022/04/13 00:56:32;;;;;;;14.18;12.70;;;;;;;15.23;74.88;100166.38;5051688;28;20053;-77
2022/04/13 00:59:10;;;;;;;16.73;15.23;;;;;;;15.04;74.93;100154.47;5075051;28;20127;-77
2022/04/13 01:01:40;;;;;;;13.77;12.35;;;;;;;15.20;74.55;100178.25;5050996;28;20048;-76
2022/04/13 01:04:11;;;;;;;13.82;12.60;;;;;;;15.22;74.55;100175.97;5073790;28;20052;-77
2022/04/13 01:06:40;;;;;;;15.25;13.75;;;;;;;15.15;74.73;100161.53;5070806;28;20041;-76
2022/04/13 01:09:07;;;;;;;15.38;12.70;;;;;;;15.11;74.40;100160.50;5065803;28;20044;-76
2022/04/13 01:11:34;;;;;;;17.95;14.15;;;;;;;15.04;74.38;100151.69;5072483;28;20473;-75
2022/04/13 01:14:01;;;;;;;15.45;13.73;;;;;;;15.15;74.60;100169.97;5086543;28;20526;-77
2022/04/13 01:16:28;;;;;;;15.13;13.45;;;;;;;15.20;74.50;100171.81;5070257;28;20075;-78
2022/04/13 01:18:55;;;;;;;17.88;13.82;;;;;;;15.27;74.51;100172.19;5071225;28;20052;-79
2022/04/13 01:21:45;;;;;;;14.57;13.20;;;;;;;15.27;74.86;100175.00;5075209;28;20079;-82
2022/04/13 01:24:13;;;;;;;23.83;15.20;;;;;;;15.26;74.58;100173.34;5070456;28;20136;-80
2022/04/13 01:26:40;;;;;;;17.23;14.32;;;;;;;15.29;74.48;100173.53;5068726;28;20081;-79
2022/04/13 01:29:07;;;;;;;21.50;13.70;;;;;;;15.22;74.55;100167.53;5073852;28;20460;-80
2022/04/13 01:31:34;;;;;;;19.35;14.90;;;;;;;15.25;74.74;100166.06;5072827;28;20076;-81
2022/04/13 01:34:02;;;;;;;23.33;13.52;;;;;;;15.27;74.92;100175.00;5072805;28;20106;-81
2022/04/13 01:36:29;;;;;;;19.10;14.63;;;;;;;15.25;74.69;100174.50;5068824;28;20139;-79
2022/04/13 01:38:55;;;;;;;18.45;14.75;;;;;;;15.19;74.74;100167.34;5073534;28;20160;-77
2022/04/13 01:41:22;;;;;;;16.25;14.43;;;;;;;15.01;74.38;100132.63;5087483;28;20127;-78
2022/04/13 01:43:49;;;;;;;16.33;14.73;;;;;;;15.19;74.48;100156.09;5079052;28;20079;-77
2022/04/13 01:46:16;;;;;;;15.93;13.98;;;;;;;15.11;74.27;100140.81;5073774;28;20457;-77
2022/04/13 01:48:43;;;;;;;21.08;14.43;;;;;;;15.18;74.19;100149.63;5068589;28;20437;-77
2022/04/13 01:51:10;;;;;;;17.77;15.70;;;;;;;15.21;73.94;100171.47;5072636;28;20131;-74
2022/04/13 01:53:37;;;;;;;17.05;13.98;;;;;;;14.97;73.94;100140.03;5069501;28;20079;-76
2022/04/13 01:56:04;;;;;;;22.80;14.10;;;;;;;15.06;74.17;100166.25;5066467;28;21019;-75
2022/04/13 01:58:32;;;;;;;26.83;14.27;;;;;;;14.97;74.52;100163.38;5070828;28;20103;-75
2022/04/13 02:00:59;;;;;;;17.98;14.45;;;;;;;14.87;74.26;100160.81;5077685;28;20036;-75
2022/04/13 02:03:27;;;;;;;17.48;13.60;;;;;;;14.92;74.63;100175.59;5071663;28;20052;-75
2022/04/13 02:05:54;;;;;;;17.13;14.02;;;;;;;14.82;74.40;100164.59;5075695;28;20131;-76
2022/04/13 02:08:22;;;;;;;17.55;13.32;;;;;;;14.87;74.77;100172.06;5058264;28;20595;-76
2022/04/13 02:10:50;;;;;;;15.63;13.52;;;;;;;14.75;74.73;100150.16;5063604;28;20159;-78
2022/04/13 02:13:18;;;;;;;19.25;13.75;;;;;;;14.63;74.44;100125.44;5053336;28;20486;-76
2022/04/13 02:15:45;;;;;;;19.95;13.93;;;;;;;14.95;74.61;100173.28;5070312;28;20499;-79
2022/04/13 02:18:12;;;;;;;21.20;13.52;;;;;;;14.90;74.75;100160.19;5073851;28;20075;-78
2022/04/13 02:20:39;;;;;;;24.73;13.73;;;;;;;14.84;75.00;100156.69;5069216;28;20083;-79
2022/04/13 02:23:06;;;;;;;15.73;12.65;;;;;;;14.97;75.00;100177.44;5070216;28;20131;-76
2022/04/13 02:25:36;;;;;;;15.60;12.90;;;;;;;14.97;75.18;100168.16;5066480;28;20492;-77
2022/04/13 02:28:03;;;;;;;18.23;13.98;;;;;;;15.01;75.01;100172.00;5061043;28;20080;-79
2022/04/13 02:30:31;;;;;;;17.08;13.32;;;;;;;15.06;75.11;100169.91;5067328;28;20052;-80
2022/04/13 02:32:59;;;;;;;20.75;12.35;;;;;;;15.15;75.23;100175.59;5075580;28;20079;-79
2022/04/13 02:35:27;;;;;;;21.25;12.68;;;;;;;15.15;75.05;100182.03;5080956;28;20449;-77
2022/04/13 02:37:53;;;;;;;15.07;12.20;;;;;;;15.17;75.43;100178.91;5065219;28;20079;-78
2022/04/13 02:40:20;;;;;;;19.27;12.70;;;;;;;15.16;75.19;100177.25;5071523;28;20462;-77
2022/04/13 02:42:47;;;;;;;18.27;12.50;;;;;;;14.89;75.48;100139.66;5072526;28;20135;-78
2022/04/13 02:45:14;;;;;;;18.10;11.93;;;;;;;15.02;75.10;100154.00;5070103;28;20508;-75
2022/04/13 02:47:41;;;;;;;19.83;12.75;;;;;;;15.02;75.00;100157.63;5070501;28;20079;-76
2022/04/13 02:50:08;;;;;;;16.33;11.82;;;;;;;15.11;74.79;100178.22;5065899;28;20139;-82
2022/04/13 02:52:35;;;;;;;17.90;11.68;;;;;;;15.14;74.60;100177.59;5065185;28;20479;-78
2022/04/13 02:55:03;;;;;;;19.48;12.48;;;;;;;15.08;74.60;100166.78;5083628;28;20087;-76
2022/04/13 02:57:30;;;;;;;13.60;12.25;;;;;;;15.09;74.55;100179.69;5075500;28;20541;-77
2022/04/13 02:59:56;;;;;;;12.45;11.27;;;;;;;15.17;74.86;100195.78;5080650;28;20087;-77
2022/04/13 03:02:29;;;;;;;15.88;12.10;;;;;;;15.08;74.90;100163.97;5055930;28;20091;-77
2022/04/13 03:04:56;;;;;;;20.10;13.80;;;;;;;15.13;74.74;100181.53;5066281;28;20059;-77
2022/04/13 03:07:25;;;;;;;20.10;10.85;;;;;;;15.12;74.74;100191.13;5065307;28;20135;-77
2022/04/13 03:09:52;;;;;;;19.67;11.83;;;;;;;15.07;74.70;100174.34;5075895;28;20048;-77
2022/04/13 03:12:19;;;;;;;15.23;12.23;;;;;;;14.98;74.90;100164.22;5064901;28;20297;-76
2022/04/13 03:14:47;;;;;;;15.55;10.80;;;;;;;15.03;74.60;100180.94;5072435;28;20131;-75
2022/04/13 03:17:14;;;;;;;12.68;11.50;;;;;;;15.02;74.61;100184.94;5071686;28;20469;-79
2022/04/13 03:19:41;;;;;;;17.90;11.93;;;;;;;14.88;74.24;100171.75;5071949;28;20482;-77
2022/04/13 03:22:07;;;;;;;13.90;12.13;;;;;;;14.90;74.10;100180.69;5058728;28;20135;-74
2022/04/13 03:24:39;;;;;;;12.25;10.32;;;;;;;14.50;74.01;100117.03;5077410;28;20086;-74
2022/04/13 03:27:06;;;;;;;13.98;11.18;;;;;;;14.73;74.35;100165.66;5067015;28;20043;-75
2022/04/13 03:29:32;;;;;;;17.67;11.80;;;;;;;14.74;73.88;100187.84;5072410;28;20143;-73
2022/04/13 03:31:59;;;;;;;12.50;11.30;;;;;;;14.67;74.03;100190.25;5063501;28;20048;-75
2022/04/13 03:34:27;;;;;;;13.50;10.18;;;;;;;14.62;74.05;100187.56;5070659;28;20048;-75
2022/04/13 03:36:54;;;;;;;13.10;11.20;;;;;;;14.45;74.33;100160.91;5069208;28;20533;-74
2022/04/13 03:39:21;;;;;;;15.47;10.93;;;;;;;14.59;74.28;100193.81;5071032;28;20154;-75
2022/04/13 03:41:47;;;;;;;21.88;12.48;;;;;;;14.44;74.17;100175.31;5068574;28;20041;-74
2022/04/13 03:44:14;;;;;;;13.05;11.75;;;;;;;14.40;74.28;100163.88;5065722;28;20147;-74
2022/04/13 03:46:41;;;;;;;18.48;11.57;;;;;;;14.56;74.55;100205.69;5057907;28;20078;-74
2022/04/13 03:49:08;;;;;;;18.77;12.20;;;;;;;14.26;74.53;100151.00;5041239;28;20545;-74
2022/04/13 03:51:35;;;;;;;23.85;12.65;;;;;;;14.63;74.38;100211.69;5067798;28;20123;-74
2022/04/13 03:54:03;;;;;;;20.20;11.85;;;;;;;14.64;74.52;100204.94;5057070;28;20543;-75
2022/04/13 03:56:30;;;;;;;13.50;10.50;;;;;;;14.59;74.62;100194.63;5068378;28;20110;-74
2022/04/13 03:58:58;;;;;;;15.02;11.32;;;;;;;14.65;74.81;100203.78;5068272;28;20076;-75
2022/04/13 04:01:28;;;;;;;17.67;12.38;;;;;;;14.55;74.95;100198.41;5076885;28;20083;-73
2022/04/13 04:03:55;;;;;;;16.77;11.90;;;;;;;14.39;75.29;100170.63;5067004;28;20051;-75
2022/04/13 04:06:23;;;;;;;16.95;11.90;;;;;;;14.54;75.04;100197.56;5067872;28;20540;-75
2022/04/13 04:08:51;;;;;;;17.27;10.90;;;;;;;14.59;75.07;100196.63;5070534;28;20135;-74
2022/04/13 04:11:18;;;;;;;12.50;11.30;;;;;;;14.45;75.25;100191.81;5067411;28;20076;-75
2022/04/13 04:13:45;;;;;;;24.30;11.35;;;;;;;14.13;75.12;100141.44;5076429;28;20131;-74
2022/04/13 04:16:12;;;;;;;22.48;11.20;;;;;;;14.60;75.12;100217.97;5079261;28;20469;-76
2022/04/13 04:18:38;;;;;;;20.17;11.50;;;;;;;14.62;74.83;100219.31;5073879;28;20052;-75
2022/04/13 04:21:05;;;;;;;12.02;10.82;;;;;;;14.68;74.85;100223.66;5075775;28;20546;-79
2022/04/13 04:23:32;;;;;;;15.13;11.27;;;;;;;14.53;74.85;100192.25;5071313;28;20419;-78
2022/04/13 04:25:59;;;;;;;15.80;11.47;;;;;;;14.72;75.09;100215.44;5086124;28;20109;-80
2022/04/13 04:28:26;;;;;;;20.15;11.07;;;;;;;14.76;74.91;100227.69;5071802;28;20470;-79
2022/04/13 04:30:52;;;;;;;14.63;11.17;;;;;;;14.81;74.96;100221.97;5071733;28;20143;-79
2022/04/13 04:33:19;;;;;;;20.83;11.57;;;;;;;14.82;75.31;100228.41;5089072;28;20097;-79
2022/04/13 04:35:51;;;;;;;21.52;11.88;;;;;;;14.77;75.44;100232.19;5069726;28;20088;-77
2022/04/13 04:38:19;;;;;;;22.52;11.63;;;;;;;14.67;75.26;100212.75;5071375;28;20049;-74
2022/04/13 04:40:46;;;;;;;15.80;10.38;;;;;;;14.75;75.40;100226.03;5068935;28;20049;-74
2022/04/13 04:43:13;;;;;;;19.20;10.93;;;;;;;14.79;75.42;100229.88;5074624;28;20102;-74
2022/04/13 04:45:40;;;;;;;22.10;10.77;;;;;;;14.89;75.54;100254.94;5080201;28;20143;-73
2022/04/13 04:48:07;;;;;;;21.50;11.00;;;;;;;14.76;75.71;100213.63;5061866;28;20055;-75
2022/04/13 04:50:34;;;;;;;16.50;11.32;;;;;;;14.97;75.61;100249.72;5072672;28;20558;-75
2022/04/13 04:53:02;;;;;;;19.17;10.63;;;;;;;14.83;75.79;100221.63;5057512;28;20574;-78
2022/04/13 04:55:29;;;;;;;26.30;10.67;;;;;;;14.69;75.67;100210.44;5075907;28;20055;-78
2022/04/13 04:57:57;;;;;;;16.30;11.15;;;;;;;14.83;75.57;100227.25;5073439;28;20077;-79
2022/04/13 05:00:25;;;;;;;14.88;9.85;;;;;;;14.99;75.80;100267.09;5074389;28;20140;-79
2022/04/13 05:02:53;;;;;;;15.25;10.07;;;;;;;14.70;75.59;100234.59;5075547;28;20553;-80
2022/04/13 05:05:21;;;;;;;20.23;10.23;;;;;;;14.89;75.57;100265.34;5068667;28;20048;-78
2022/04/13 05:07:48;;;;;;;17.30;10.23;;;;;;;14.91;75.54;100274.31;5071656;28;20110;-78
2022/04/13 05:10:15;;;;;;;17.42;10.38;;;;;;;14.87;75.75;100268.50;5074505;28;20090;-75
2022/04/13 05:12:43;;;;;;;19.03;10.97;;;;;;;14.99;75.56;100292.41;5071868;28;20044;-76
2022/04/13 05:15:12;;;;;;;12.85;10.65;;;;;;;14.99;75.73;100289.59;5074025;28;20101;-82
2022/04/13 05:17:40;;;;;;;16.08;10.50;;;;;;;15.00;75.60;100294.06;5069282;28;20135;-83
2022/04/13 05:20:08;;;;;;;16.52;9.95;;;;;;;15.03;75.86;100293.44;5072893;28;20076;-83
2022/04/13 05:22:35;;;;;;;13.65;10.38;;;;;;;14.90;75.83;100286.69;5054904;28;20079;-72
2022/04/13 05:25:10;;;;;;;14.43;9.73;;;;;;;14.86;75.83;100282.84;5062583;28;20087;-73
2022/04/13 05:27:38;;;;;;;11.15;8.85;;;;;;;15.04;75.84;100303.53;5073021;28;20113;-73
2022/04/13 05:30:06;;;;;;;10.82;9.60;;;;;;;15.07;75.85;100311.34;5068539;28;20048;-79
2022/04/13 05:32:49;;;;;;;14.38;9.23;;;;;;;15.04;75.94;100311.97;5074161;28;20179;-81
2022/04/13 05:35:19;;;;;;;12.98;8.82;;;;;;;15.05;75.75;100313.66;5057433;28;20057;-83
2022/04/13 05:37:46;;;;;;;13.50;9.13;;;;;;;14.88;75.68;100292.66;5060577;28;20135;-82
2022/04/13 05:40:13;;;;;;;13.25;9.70;;;;;;;15.01;75.82;100321.03;5088074;28;20075;-82
2022/04/13 05:42:40;;;;;;;12.07;10.25;;;;;;;14.89;75.44;100311.16;5061863;28;20298;-78
2022/04/13 05:45:08;;;;;;;15.38;9.25;;;;;;;14.95;75.85;100313.88;5058836;28;20084;-79
2022/04/13 05:47:34;;;;;;;11.02;10.02;;;;;;;14.72;75.65;100301.72;5071344;28;20128;-78
2022/04/13 05:50:02;;;;;;;11.30;10.18;;;;;;;14.92;75.53;100330.22;5072016;28;20555;-84
2022/04/13 05:52:29;;;;;;;13.25;9.90;;;;;;;14.78;75.49;100320.97;5072402;28;20404;-76
2022/04/13 05:54:56;;;;;;;10.75;9.70;;;;;;;14.76;75.49;100325.25;5065278;28;20192;-78
2022/04/13 05:57:23;;;;;;;13.98;10.43;;;;;;;14.76;75.57;100328.88;5066952;28;20080;-78
2022/04/13 05:59:50;;;;;;;11.63;10.15;;;;;;;14.83;75.45;100336.91;5059592;28;20563;-79
2022/04/13 06:02:17;;;;;;;11.65;10.48;;;;;;;14.88;75.54;100348.88;5061704;28;20080;-78
2022/04/13 06:04:44;;;;;;;11.95;9.45;;;;;;;14.73;75.88;100323.06;5064810;28;20774;-78
2022/04/13 06:07:11;;;;;;;16.98;9.90;;;;;;;14.91;75.93;100351.06;5068955;28;20601;-79
2022/04/13 06:09:37;;;;;;;12.38;10.20;;;;;;;14.74;75.86;100331.19;5043709;28;20135;-78
2022/04/13 06:12:05;;;;;;;14.48;13.10;;;;;;;14.61;76.08;100320.78;5072083;28;20132;-78
2022/04/13 06:14:32;;;;;;;16.52;12.55;;;;;;;14.72;76.17;100347.53;5063676;28;20391;-77
2022/04/13 06:17:03;;;;;;;12.73;10.65;;;;;;;14.67;76.42;100344.84;5066214;28;20083;-78
2022/04/13 06:19:30;;;;;;;14.98;10.18;;;;;;;14.70;76.45;100352.66;5072565;28;20473;-78
2022/04/13 06:21:57;;;;;;;14.13;10.27;;;;;;;14.59;76.38;100337.13;5056511;28;20451;-79
2022/04/13 06:24:24;;;;;;;11.20;10.27;;;;;;;14.72;76.30;100367.22;5070253;28;20503;-79
2022/04/13 06:26:51;;;;;;;12.20;11.00;;;;;;;14.71;76.54;100359.94;5072631;28;20135;-78
2022/04/13 06:29:18;;;;;;;13.07;11.57;;;;;;;14.68;76.49;100355.75;5062622;28;20051;-77
2022/04/13 06:31:45;;;;;;;16.92;11.70;;;;;;;14.73;76.60;100359.59;5070073;28;20080;-74
2022/04/13 06:34:12;;;;;;;23.55;11.50;;;;;;;14.82;76.50;100378.25;5073115;28;20142;-77
2022/04/13 06:36:39;;;;;;;14.25;10.73;;;;;;;14.74;76.84;100358.47;5063424;28;20495;-77
2022/04/13 06:39:05;;;;;;;11.57;10.48;;;;;;;14.73;77.03;100349.19;5064249;28;20083;-78
2022/04/13 06:41:32;;;;;;;13.18;10.82;;;;;;;14.75;76.91;100355.34;5069620;28;20140;-82
2022/04/13 06:43:59;;;;;;;18.70;10.68;;;;;;;14.80;76.97;100363.69;5074121;28;20127;-79
2022/04/13 06:46:26;;;;;;;17.35;10.63;;;;;;;14.81;76.87;100364.50;5062272;28;20087;-81
2022/04/13 06:48:53;;;;;;;13.73;12.38;;;;;;;14.86;77.18;100368.03;5067581;28;20060;-81
2022/04/13 06:51:20;;;;;;;13.07;10.02;;;;;;;14.93;76.95;100370.41;5062032;28;21417;-81
2022/04/13 06:53:46;;;;;;;19.67;12.55;;;;;;;15.00;77.35;100372.81;5075977;28;20079;-81
2022/04/13 06:56:14;;;;;;;16.33;10.88;;;;;;;15.02;77.37;100368.53;5083006;28;20083;-82
2022/04/13 06:58:42;;;;;;;12.88;11.88;;;;;;;15.06;77.76;100377.19;5085668;28;20048;-82
2022/04/13 07:01:09;;;;;;;11.60;10.48;;;;;;;15.05;77.35;100375.53;5080776;28;20522;-82
2022/04/13 07:03:36;;;;;;;22.00;11.38;;;;;;;15.10;77.33;100389.44;5074807;28;20045;-81
2022/04/13 07:06:03;;;;;;;28.42;17.20;;;;;;;15.17;77.30;100401.94;5075674;28;20117;-82
2022/04/13 07:08:39;;;;;;;14.05;12.60;;;;;;;15.12;77.14;100399.25;5082276;28;20049;-82
2022/04/13 07:11:06;;;;;;;16.17;14.52;;;;;;;14.81;77.56;100348.47;5070735;28;20048;-81
2022/04/13 07:13:33;;;;;;;13.63;12.30;;;;;;;15.03;77.45;100394.66;5090203;28;20044;-82
2022/04/13 07:16:00;;;;;;;11.00;9.05;;;;;;;14.97;77.13;100393.94;5092809;28;20087;-82
2022/04/13 07:18:28;;;;;;;13.40;10.85;;;;;;;15.17;77.30;100426.41;5089401;28;20406;-84
2022/04/13 07:20:55;;;;;;;11.50;9.85;;;;;;;15.01;76.88;100408.19;5068999;28;20076;-82
2022/04/13 07:23:22;;;;;;;15.15;9.30;;;;;;;15.09;77.18;100415.91;5089198;28;20048;-83
2022/04/13 07:25:49;;;;;;;11.07;10.02;;;;;;;15.20;77.25;100434.22;5093555;28;20048;-82
2022/04/13 07:28:15;;;;;;;10.40;9.23;;;;;;;15.19;76.79;100431.75;5093545;28;20063;-82
2022/04/13 07:30:42;;;;;;;13.13;10.93;;;;;;;15.13;76.98;100419.75;5075706;28;20080;-82
2022/04/13 07:33:09;;;;;;;11.40;10.25;;;;;;;15.23;76.88;100439.22;5058193;28;20107;-82
2022/04/13 07:35:36;;;;;;;13.63;9.80;;;;;;;15.26;76.88;100438.59;5071413;28;20080;-83
2022/04/13 07:38:03;;;;;;;20.80;12.50;;;;;;;15.10;77.03;100406.31;5070995;28;20495;-83
2022/04/13 07:40:30;;;;;;;15.65;10.85;;;;;;;15.25;76.80;100448.22;5069390;28;20076;-85
2022/04/13 07:42:56;;;;;;;12.35;11.07;;;;;;;15.26;76.84;100455.50;5063696;28;20123;-84
2022/04/13 07:45:24;;;;;;;12.45;10.57;;;;;;;15.29;76.71;100449.22;5064049;28;20048;-83
2022/04/13 07:47:51;;;;;;;12.52;11.23;;;;;;;15.46;76.84;100456.19;5064380;28;20048;-83
2022/04/13 07:50:17;;;;;;;13.60;12.27;;;;;;;15.57;76.49;100477.31;5072264;28;20094;-82
2022/04/13 07:52:45;;;;;;;12.27;9.20;;;;;;;15.48;76.17;100451.06;5054522;28;20144;-81
2022/04/13 07:55:12;;;;;;;12.57;9.13;;;;;;;15.62;75.94;100468.75;5070329;28;20128;-81
2022/04/13 07:57:40;;;;;;;9.10;8.50;;;;;;;15.69;76.22;100469.22;5076087;28;20056;-80
2022/04/13 08:00:12;;;;;;;9.55;8.80;;;;;;;15.91;75.97;100478.84;5074996;28;20091;-80
2022/04/13 08:02:40;;;;;;;9.65;8.93;;;;;;;16.08;75.56;100467.69;5073027;28;20132;-78
2022/04/13 08:05:07;;;;;;;9.07;8.52;;;;;;;16.21;75.24;100451.91;5077343;28;20048;-79
2022/04/13 08:07:35;;;;;;;11.10;9.77;;;;;;;16.58;74.88;100464.69;5075359;28;20139;-78
2022/04/13 08:10:01;;;;;;;10.45;9.50;;;;;;;16.87;74.74;100483.16;5076823;28;20055;-80
2022/04/13 08:12:29;;;;;;;9.30;8.70;;;;;;;17.20;74.21;100489.25;5054540;28;20045;-79
2022/04/13 08:14:57;;;;;;;9.07;8.50;;;;;;;17.02;73.71;100437.56;5065089;28;20136;-78
2022/04/13 08:17:25;;;;;;;8.40;7.90;;;;;;;17.15;73.27;100462.00;5074813;28;20068;-87
2022/04/13 08:19:53;;;;;;;9.50;8.80;;;;;;;17.13;73.33;100455.00;5073966;28;20044;-81
2022/04/13 08:22:24;;;;;;;10.82;10.20;;;;;;;17.34;72.99;100500.44;5075339;28;20071;-85
2022/04/13 08:24:53;;;;;;;8.88;8.27;;;;;;;17.55;73.15;100526.06;5076669;28;20079;-87
2022/04/13 08:27:20;;;;;;;9.05;8.30;;;;;;;17.61;73.25;100530.41;5074319;28;20052;-86
2022/04/13 08:29:47;;;;;;;9.68;8.93;;;;;;;17.62;73.15;100518.75;5071328;28;20561;-86
2022/04/13 08:32:18;;;;;;;10.38;9.68;;;;;;;17.85;72.95;100521.50;5064895;28;20810;-86
2022/04/13 08:34:48;;;;;;;9.93;9.18;;;;;;;18.00;72.80;100529.47;5066521;28;20151;-83
2022/04/13 08:37:15;;;;;;;9.52;8.90;;;;;;;17.89;72.33;100491.44;5065594;28;20088;-86
2022/04/13 08:39:42;;;;;;;9.40;8.60;;;;;;;18.22;72.21;100537.81;5063119;28;20663;-85
2022/04/13 08:42:13;;;;;;;10.23;9.50;;;;;;;18.16;72.11;100501.56;5068516;28;20059;-84
2022/04/13 08:44:50;;;;;;;9.13;8.57;;;;;;;18.40;71.75;100527.31;5073550;28;20476;-75
2022/04/13 08:47:22;;;;;;;12.98;9.60;;;;;;;18.28;71.29;100517.84;5060537;28;20049;-76
2022/04/13 08:49:51;;;;;;;9.30;8.50;;;;;;;18.17;70.88;100518.19;5067804;28;20507;-77
2022/04/13 08:52:22;;;;;;;9.02;8.43;;;;;;;17.96;71.34;100534.13;5054560;28;20079;-77
2022/04/13 08:55:08;;;;;;;9.20;8.60;;;;;;;17.40;72.29;100518.84;5067380;28;20099;-77
2022/04/13 08:57:41;;;;;;;9.82;8.90;;;;;;;17.33;71.79;100543.91;5065930;28;20131;-76
2022/04/13 09:00:08;;;;;;;9.98;9.07;;;;;;;17.15;71.87;100549.47;5065019;28;20072;-76
2022/04/13 09:02:47;;;;;;;9.68;8.88;;;;;;;16.99;71.91;100531.31;5065829;28;20103;-77
2022/04/13 09:05:16;;;;;;;10.30;9.60;;;;;;;16.92;71.63;100523.34;5064877;28;20159;-77
2022/04/13 09:08:05;;;;;;;10.25;9.30;;;;;;;16.92;71.90;100528.13;5068450;28;20147;-77
2022/04/13 09:10:32;;;;;;;12.02;11.27;;;;;;;16.89;71.63;100528.75;5066027;28;20144;-77
2022/04/13 09:12:59;;;;;;;11.10;9.00;;;;;;;16.83;71.62;100511.16;5066329;28;20505;-78
2022/04/13 09:15:28;;;;;;;11.07;10.27;;;;;;;16.99;71.53;100537.81;5067035;28;20061;-77
2022/04/13 09:17:55;;;;;;;9.38;8.55;;;;;;;17.08;71.26;100512.44;5071762;28;20135;-77
2022/04/13 09:20:23;;;;;;;9.55;8.70;;;;;;;17.47;71.52;100533.31;5070869;28;20059;-77
2022/04/13 09:22:50;;;;;;;9.02;8.38;;;;;;;17.52;70.98;100486.00;5070811;28;20071;-77
2022/04/13 09:25:19;;;;;;;9.13;8.32;;;;;;;17.84;70.78;100519.81;5070119;28;20168;-77
2022/04/13 09:27:47;;;;;;;10.25;9.50;;;;;;;17.98;70.98;100532.66;5067325;28;20131;-77
2022/04/13 09:30:14;;;;;;;9.32;7.90;;;;;;;17.99;70.97;100545.59;5074572;28;20128;-77
2022/04/13 09:32:44;;;;;;;13.52;8.77;;;;;;;17.84;70.79;100531.13;5067990;28;20041;-76
2022/04/13 09:35:11;;;;;;;8.38;7.75;;;;;;;17.72;70.64;100538.22;5071680;28;20535;-76
2022/04/13 09:37:39;;;;;;;9.68;9.05;;;;;;;17.60;70.38;100537.19;5073076;28;20547;-76
2022/04/13 09:40:06;;;;;;;8.68;7.95;;;;;;;17.55;70.17;100551.47;5055297;28;20500;-77
2022/04/13 09:42:35;;;;;;;8.85;8.10;;;;;;;17.24;70.02;100524.97;5069300;28;20059;-76
2022/04/13 09:45:03;;;;;;;9.55;8.60;;;;;;;17.28;69.85;100556.19;5072263;28;20083;-76
2022/04/13 09:47:33;;;;;;;8.90;8.30;;;;;;;17.10;70.08;100546.00;5074659;28;20079;-76
2022/04/13 09:50:00;;;;;;;10.45;9.05;;;;;;;16.84;70.27;100537.38;5073106;28;20051;-77
2022/04/13 09:52:37;;;;;;;9.05;8.15;;;;;;;16.86;70.54;100558.47;5062172;28;20132;-77
2022/04/13 09:55:05;;;;;;;8.95;8.43;;;;;;;16.59;70.30;100529.25;5068897;28;20500;-77
2022/04/13 09:57:32;;;;;;;9.48;8.88;;;;;;;16.55;70.49;100538.66;5064739;28;20441;-77
2022/04/13 10:00:03;;;;;;;12.68;11.57;;;;;;;16.71;70.48;100567.28;5070297;28;20058;-78
2022/04/13 10:02:37;;;;;;;8.90;8.25;;;;;;;16.48;70.42;100536.31;5073067;28;20127;-77
2022/04/13 10:05:09;;;;;;;8.25;7.65;;;;;;;16.76;70.33;100568.03;5072519;28;20052;-77
2022/04/13 10:07:36;;;;;;;11.07;8.73;;;;;;;16.73;70.51;100554.53;5070317;28;20083;-76
2022/04/13 10:10:04;;;;;;;10.10;9.20;;;;;;;16.71;70.14;100522.16;5054710;28;20139;-77
2022/04/13 10:12:47;;;;;;;12.98;11.35;;;;;;;16.97;70.38;100530.81;5051024;28;20044;-77
2022/04/13 10:15:14;;;;;;;10.35;9.38;;;;;;;17.02;69.86;100527.84;5052429;28;20060;-77
2022/04/13 10:17:41;;;;;;;10.23;9.23;;;;;;;17.36;69.66;100560.19;5073969;28;20049;-78
2022/04/13 10:20:09;;;;;;;9.98;8.52;;;;;;;17.51;69.52;100562.59;5069225;28;21152;-77
2022/04/13 10:23:02;;;;;;;8.85;8.30;;;;;;;17.66;69.66;100548.00;5065471;28;20139;-77
2022/04/13 10:25:29;;;;;;;8.98;8.10;;;;;;;17.75;69.18;100551.69;5071984;28;20080;-78
2022/04/13 10:27:58;;;;;;;10.80;9.90;;;;;;;17.97;69.16;100561.22;5065174;28;20507;-77
2022/04/13 10:30:36;;;;;;;12.25;10.95;;;;;;;17.95;69.11;100549.44;5074066;28;20125;-78
2022/04/13 10:33:12;;;;;;;10.13;8.38;;;;;;;17.95;68.41;100529.66;5066201;28;20087;-77
2022/04/13 10:35:41;;;;;;;10.10;9.27;;;;;;;18.01;68.27;100531.13;5068308;28;20098;-77
2022/04/13 10:38:08;;;;;;;9.10;8.30;;;;;;;18.16;68.24;100539.13;5073424;28;20084;-79
2022/04/13 10:40:41;;;;;;;9.07;8.40;;;;;;;18.05;68.03;100509.56;5073202;28;20127;-77
2022/04/13 10:43:12;;;;;;;9.18;8.52;;;;;;;18.47;67.86;100555.09;5072715;28;20079;-76
2022/04/13 10:45:40;;;;;;;9.80;8.93;;;;;;;18.45;67.70;100534.78;5072005;28;20053;-77
2022/04/13 10:48:10;;;;;;;10.00;8.88;;;;;;;18.83;68.08;100551.06;5068344;28;20102;-77
2022/04/13 10:50:45;;;;;;;9.35;8.25;;;;;;;19.35;68.09;100548.06;5071241;28;20108;-77
2022/04/13 10:53:20;;;;;;;8.98;8.38;;;;;;;19.77;67.67;100563.22;5066596;28;20467;-77
2022/04/13 10:55:56;;;;;;;9.00;8.23;;;;;;;19.88;67.61;100538.97;5066827;28;20087;-78
2022/04/13 10:58:41;;;;;;;8.40;7.80;;;;;;;20.05;67.34;100535.19;5062487;28;20072;-77
2022/04/13 11:01:14;;;;;;;12.88;8.15;;;;;;;20.83;67.13;100537.34;5070403;28;20052;-76
2022/04/13 11:03:42;;;;;;;9.50;8.73;;;;;;;21.36;66.02;100562.31;5067632;28;20144;-78
2022/04/13 11:06:11;;;;;;;8.90;8.30;;;;;;;21.14;66.30;100543.69;5064368;28;20048;-77
2022/04/13 11:08:44;;;;;;;9.18;8.52;;;;;;;20.97;66.66;100564.56;5066998;28;20534;-78
2022/04/13 11:11:19;;;;;;;10.85;8.52;;;;;;;20.51;66.58;100530.50;5063933;28;20130;-77
2022/04/13 11:13:48;;;;;;;9.60;8.65;;;;;;;20.48;66.04;100565.19;5066557;28;20044;-76
2022/04/13 11:16:16;;;;;;;9.60;8.93;;;;;;;20.33;65.58;100546.78;5068521;28;20415;-78
2022/04/13 11:19:04;;;;;;;9.63;8.93;;;;;;;20.35;65.72;100558.63;5068241;28;20056;-78
2022/04/13 11:21:35;;;;;;;11.95;10.88;;;;;;;20.42;64.59;100552.41;5050979;28;20084;-77